Time,TemperatureF,DewpointF,PressureIn,WindDirection,WindDirectionDegrees,WindSpeedMPH,WindSpeedGustMPH,Humidity,HourlyPrecipIn,Conditions,Clouds,dailyrainin,SoftwareType,DateUTC
2013-09-17 00:13:00,50.8,39.0,30.12,NE,53,0.0,-999.0,64,-99.99,,,0.03,weatherlink.com 1.10,2013-09-17 04:13:00,
2013-09-17 00:28:00,50.2,39.0,30.13,NE,34,3.0,-999.0,66,-99.99,,,0.00,weatherlink.com 1.10,2013-09-17 04:28:00,
2013-09-17 00:43:00,49.8,40.0,30.14,NE,47,10.0,-999.0,68,-99.99,,,0.00,weatherlink.com 1.10,2013-09-17 04:43:00,
2013-09-17 00:58:00,49.5,39.0,30.14,NE,54,5.0,-999.0,68,-99.99,,,0.00,weatherlink.com 1.10,2013-09-17 04:58:00,
2013-09-17 01:13:00,49.6,39.0,30.15,NNE,33,3.0,-999.0,68,-99.99,,,0.00,weatherlink.com 1.10,2013-09-17 05:13:00,
2013-09-17 01:28:00,49.8,39.0,30.15,ENE,65,6.0,-999.0,67,-99.99,,,0.00,weatherlink.com 1.10,2013-09-17 05:28:00,
2013-09-17 01:43:00,50.1,39.0,30.16,East,85,4.0,-999.0,66,-99.99,,,0.00,weatherlink.com 1.10,2013-09-17 05:43:00,
2013-09-17 01:58:00,50.4,39.0,30.16,NE,54,7.0,-999.0,65,-99.99,,,0.00,weatherlink.com 1.10,2013-09-17 05:58:00,
2013-09-17 02:13:00,50.5,39.0,30.16,ESE,105,3.0,-999.0,65,-99.99,,,0.00,weatherlink.com 1.10,2013-09-17 06:13:00,
2013-09-17 02:28:00,50.2,39.0,30.16,ENE,65,8.0,-999.0,65,-99.99,,,0.00,weatherlink.com 1.10,2013-09-17 06:28:00,
2013-09-17 02:44:00,49.8,38.0,30.17,NNE,20,16.0,-999.0,65,-99.99,,,0.00,weatherlink.com 1.10,2013-09-17 06:44:00,
2013-09-17 02:59:00,49.5,38.0,30.17,ENE,57,6.0,-999.0,66,-99.99,,,0.00,weatherlink.com 1.10,2013-09-17 06:59:00,
2013-09-17 03:14:00,49.4,39.0,30.17,ENE,72,0.0,-999.0,67,-99.99,,,0.00,weatherlink.com 1.10,2013-09-17 07:14:00,
2013-09-17 03:29:00,50.2,39.0,30.17,NE,54,0.0,-999.0,65,-99.99,,,0.00,weatherlink.com 1.10,2013-09-17 07:29:00,
2013-09-17 03:44:00,50.5,38.0,30.18,NNE,23,4.0,-999.0,63,-99.99,,,0.00,weatherlink.com 1.10,2013-09-17 07:44:00,
2013-09-17 03:59:00,50.7,38.0,30.18,ENE,61,0.0,-999.0,62,-99.99,,,0.00,weatherlink.com 1.10,2013-09-17 07:59:00,
2013-09-17 04:14:00,50.5,38.0,30.18,East,79,4.0,-999.0,62,-99.99,,,0.00,weatherlink.com 1.10,2013-09-17 08:14:00,
2013-09-17 04:29:00,50.2,37.0,30.18,NE,55,0.0,-999.0,62,-99.99,,,0.00,weatherlink.com 1.10,2013-09-17 08:29:00,
2013-09-17 04:44:00,49.9,38.0,30.18,NE,53,1.0,-999.0,63,-99.99,,,0.00,weatherlink.com 1.10,2013-09-17 08:44:00,
2013-09-17 04:59:00,49.8,38.0,30.18,ENE,62,1.0,-999.0,63,-99.99,,,0.00,weatherlink.com 1.10,2013-09-17 08:59:00,
2013-09-17 05:14:00,49.6,37.0,30.19,ENE,75,6.0,-999.0,63,-99.99,,,0.00,weatherlink.com 1.10,2013-09-17 09:14:00,
2013-09-17 05:29:00,49.8,37.0,30.20,SE,126,1.0,-999.0,62,-99.99,,,0.00,weatherlink.com 1.10,2013-09-17 09:29:00,
2013-09-17 05:44:00,49.9,37.0,30.20,ENE,72,1.0,-999.0,62,-99.99,,,0.00,weatherlink.com 1.10,2013-09-17 09:44:00,
2013-09-17 05:59:00,49.9,37.0,30.21,ENE,65,3.0,-999.0,62,-99.99,,,0.00,weatherlink.com 1.10,2013-09-17 09:59:00,
2013-09-17 06:14:00,50.1,37.0,30.21,NE,54,11.0,-999.0,62,-99.99,,,0.00,weatherlink.com 1.10,2013-09-17 10:14:00,
2013-09-17 06:29:00,50.1,37.0,30.22,NE,54,8.0,-999.0,62,-99.99,,,0.00,weatherlink.com 1.10,2013-09-17 10:29:00,
2013-09-17 06:44:00,49.9,37.0,30.23,East,88,10.0,-999.0,62,-99.99,,,0.00,weatherlink.com 1.10,2013-09-17 10:44:00,
2013-09-17 06:59:00,49.9,36.0,30.23,NE,38,10.0,-999.0,60,-99.99,,,0.00,weatherlink.com 1.10,2013-09-17 10:59:00,
2013-09-17 07:14:00,50.4,36.0,30.24,East,81,0.0,-999.0,58,-99.99,,,0.00,weatherlink.com 1.10,2013-09-17 11:14:00,
2013-09-17 07:29:00,50.5,36.0,30.25,East,92,6.0,-999.0,57,-99.99,,,0.00,weatherlink.com 1.10,2013-09-17 11:29:00,
2013-09-17 07:44:00,50.5,36.0,30.25,East,81,7.0,-999.0,57,-99.99,,,0.00,weatherlink.com 1.10,2013-09-17 11:44:00,
2013-09-17 07:59:00,50.1,40.0,30.26,NE,53,0.0,-999.0,68,-99.99,,,0.00,weatherlink.com 1.10,2013-09-17 11:59:00,
2013-09-17 08:14:00,49.6,40.0,30.26,East,95,3.0,-999.0,70,-99.99,,,0.00,weatherlink.com 1.10,2013-09-17 12:14:00,
2013-09-17 08:29:00,50.1,41.0,30.26,ENE,72,3.0,-999.0,70,-99.99,,,0.00,weatherlink.com 1.10,2013-09-17 12:29:00,
2013-09-17 08:44:00,51.0,40.0,30.27,NE,54,11.0,-999.0,66,-99.99,,,0.00,weatherlink.com 1.10,2013-09-17 12:44:00,
2013-09-17 08:59:00,51.0,41.0,30.28,NE,54,4.0,-999.0,68,-99.99,,,0.00,weatherlink.com 1.10,2013-09-17 12:59:00,
2013-09-17 09:14:00,51.3,41.0,30.28,ENE,65,4.0,-999.0,67,-99.99,,,0.00,weatherlink.com 1.10,2013-09-17 13:14:00,
2013-09-17 09:29:00,51.3,40.0,30.29,East,84,6.0,-999.0,66,-99.99,,,0.00,weatherlink.com 1.10,2013-09-17 13:29:00,
2013-09-17 09:44:00,52.2,38.0,30.30,ESE,108,12.0,-999.0,59,-99.99,,,0.00,weatherlink.com 1.10,2013-09-17 13:44:00,
2013-09-17 09:59:00,52.9,37.0,30.30,SE,126,1.0,-999.0,56,-99.99,,,0.00,weatherlink.com 1.10,2013-09-17 13:59:00,
2013-09-17 10:14:00,53.9,38.0,30.30,ENE,61,19.0,-999.0,56,-99.99,,,0.00,weatherlink.com 1.10,2013-09-17 14:14:00,
2013-09-17 10:29:00,53.3,37.0,30.30,NE,44,6.0,-999.0,55,-99.99,,,0.00,weatherlink.com 1.10,2013-09-17 14:29:00,
2013-09-17 10:44:00,53.8,37.0,30.30,East,82,14.0,-999.0,54,-99.99,,,0.00,weatherlink.com 1.10,2013-09-17 14:44:00,
2013-09-17 10:59:00,53.6,38.0,30.31,NNE,29,6.0,-999.0,56,-99.99,,,0.00,weatherlink.com 1.10,2013-09-17 14:59:00,
2013-09-17 11:14:00,54.4,36.0,30.31,East,82,2.0,-999.0,50,-99.99,,,0.00,weatherlink.com 1.10,2013-09-17 15:14:00,
2013-09-17 11:29:00,54.2,36.0,30.31,East,79,15.0,-999.0,50,-99.99,,,0.00,weatherlink.com 1.10,2013-09-17 15:29:00,
2013-09-17 11:44:00,54.8,37.0,30.30,ENE,74,8.0,-999.0,51,-99.99,,,0.00,weatherlink.com 1.10,2013-09-17 15:44:00,
2013-09-17 11:59:00,54.7,37.0,30.30,East,92,2.0,-999.0,51,-99.99,,,0.00,weatherlink.com 1.10,2013-09-17 15:59:00,
2013-09-17 12:14:00,55.0,37.0,30.31,ESE,102,10.0,-999.0,51,-99.99,,,0.00,weatherlink.com 1.10,2013-09-17 16:14:00,
2013-09-17 12:29:00,55.3,36.0,30.31,East,81,8.0,-999.0,49,-99.99,,,0.00,weatherlink.com 1.10,2013-09-17 16:29:00,
2013-09-17 12:44:00,55.4,36.0,30.30,East,89,0.0,-999.0,48,-99.99,,,0.00,weatherlink.com 1.10,2013-09-17 16:44:00,
2013-09-17 13:00:00,56.0,37.0,30.30,NE,46,11.0,-999.0,49,-99.99,,,0.00,weatherlink.com 1.10,2013-09-17 17:00:00,
2013-09-17 13:15:00,55.6,37.0,30.30,ENE,71,17.0,-999.0,49,-99.99,,,0.00,weatherlink.com 1.10,2013-09-17 17:15:00,
2013-09-17 13:30:00,56.0,36.0,30.29,ENE,61,12.0,-999.0,47,-99.99,,,0.00,weatherlink.com 1.10,2013-09-17 17:30:00,
2013-09-17 13:45:00,56.3,37.0,30.29,East,99,9.0,-999.0,49,-99.99,,,0.00,weatherlink.com 1.10,2013-09-17 17:45:00,
2013-09-17 14:00:00,56.5,37.0,30.28,ENE,57,12.0,-999.0,48,-99.99,,,0.00,weatherlink.com 1.10,2013-09-17 18:00:00,
2013-09-17 14:15:00,56.3,36.0,30.28,ENE,65,12.0,-999.0,47,-99.99,,,0.00,weatherlink.com 1.10,2013-09-17 18:15:00,
2013-09-17 14:30:00,56.5,35.0,30.28,NE,54,10.0,-999.0,44,-99.99,,,0.00,weatherlink.com 1.10,2013-09-17 18:30:00,
2013-09-17 14:45:00,57.0,36.0,30.27,ESE,102,7.0,-999.0,45,-99.99,,,0.00,weatherlink.com 1.10,2013-09-17 18:45:00,
2013-09-17 15:00:00,56.9,36.0,30.27,East,86,12.0,-999.0,46,-99.99,,,0.00,weatherlink.com 1.10,2013-09-17 19:00:00,
2013-09-17 15:15:00,56.6,36.0,30.27,NE,34,0.0,-999.0,46,-99.99,,,0.00,weatherlink.com 1.10,2013-09-17 19:15:00,
2013-09-17 15:30:00,57.2,34.0,30.26,East,92,0.0,-999.0,42,-99.99,,,0.00,weatherlink.com 1.10,2013-09-17 19:30:00,
2013-09-17 15:45:00,57.0,33.0,30.25,NNE,33,8.0,-999.0,40,-99.99,,,0.00,weatherlink.com 1.10,2013-09-17 19:45:00,
2013-09-17 16:00:00,57.6,31.0,30.26,ENE,75,10.0,-999.0,37,-99.99,,,0.00,weatherlink.com 1.10,2013-09-17 20:00:00,
2013-09-17 16:15:00,57.6,31.0,30.26,East,89,10.0,-999.0,37,-99.99,,,0.00,weatherlink.com 1.10,2013-09-17 20:15:00,
2013-09-17 16:30:00,57.6,31.0,30.26,NE,36,6.0,-999.0,36,-99.99,,,0.00,weatherlink.com 1.10,2013-09-17 20:30:00,
2013-09-17 16:45:00,57.6,31.0,30.25,NE,46,11.0,-999.0,36,-99.99,,,0.00,weatherlink.com 1.10,2013-09-17 20:45:00,
2013-09-17 17:00:00,57.6,32.0,30.25,ENE,75,0.0,-999.0,38,-99.99,,,0.00,weatherlink.com 1.10,2013-09-17 21:00:00,
2013-09-17 17:15:00,57.5,33.0,30.25,East,94,8.0,-999.0,39,-99.99,,,0.00,weatherlink.com 1.10,2013-09-17 21:15:00,
2013-09-17 17:30:00,57.2,33.0,30.24,ENE,70,2.0,-999.0,41,-99.99,,,0.00,weatherlink.com 1.10,2013-09-17 21:30:00,
2013-09-17 17:45:00,57.2,35.0,30.24,East,89,3.0,-999.0,43,-99.99,,,0.00,weatherlink.com 1.10,2013-09-17 21:45:00,
2013-09-17 18:00:00,57.0,35.0,30.23,East,89,0.0,-999.0,44,-99.99,,,0.00,weatherlink.com 1.10,2013-09-17 22:00:00,
2013-09-17 18:15:00,56.7,36.0,30.23,East,89,0.0,-999.0,47,-99.99,,,0.00,weatherlink.com 1.10,2013-09-17 22:15:00,
2013-09-17 18:30:00,55.9,39.0,30.23,East,86,0.0,-999.0,53,-99.99,,,0.00,weatherlink.com 1.10,2013-09-17 22:30:00,
2013-09-17 18:45:00,54.5,39.0,30.24,East,86,0.0,-999.0,56,-99.99,,,0.00,weatherlink.com 1.10,2013-09-17 22:45:00,
2013-09-17 19:00:00,53.5,41.0,30.23,East,86,0.0,-999.0,63,-99.99,,,0.00,weatherlink.com 1.10,2013-09-17 23:00:00,
2013-09-17 19:15:00,52.0,40.0,30.23,East,86,0.0,-999.0,64,-99.99,,,0.00,weatherlink.com 1.10,2013-09-17 23:15:00,
2013-09-17 19:30:00,50.7,41.0,30.23,East,86,0.0,-999.0,70,-99.99,,,0.00,weatherlink.com 1.10,2013-09-17 23:30:00,
2013-09-17 19:45:00,49.6,41.0,30.24,East,86,0.0,-999.0,71,-99.99,,,0.00,weatherlink.com 1.10,2013-09-17 23:45:00,
2013-09-17 20:00:00,48.8,41.0,30.25,East,86,0.0,-999.0,74,-99.99,,,0.00,weatherlink.com 1.10,2013-09-18 00:00:00,
2013-09-17 20:15:00,48.3,42.0,30.25,East,86,0.0,-999.0,78,-99.99,,,0.00,weatherlink.com 1.10,2013-09-18 00:15:00,
2013-09-17 20:30:00,47.9,41.0,30.25,East,86,0.0,-999.0,78,-99.99,,,0.00,weatherlink.com 1.10,2013-09-18 00:30:00,
2013-09-17 20:45:00,47.1,41.0,30.25,East,86,0.0,-999.0,79,-99.99,,,0.00,weatherlink.com 1.10,2013-09-18 00:45:00,
2013-09-17 21:00:00,46.4,41.0,30.25,East,86,0.0,-999.0,81,-99.99,,,0.00,weatherlink.com 1.10,2013-09-18 01:00:00,
2013-09-17 21:15:00,46.0,41.0,30.25,East,86,0.0,-999.0,83,-99.99,,,0.00,weatherlink.com 1.10,2013-09-18 01:15:00,
2013-09-17 21:30:00,45.7,41.0,30.24,East,86,0.0,-999.0,84,-99.99,,,0.00,weatherlink.com 1.10,2013-09-18 01:30:00,
2013-09-17 21:45:00,45.2,41.0,30.25,East,86,0.0,-999.0,85,-99.99,,,0.00,weatherlink.com 1.10,2013-09-18 01:45:00,
2013-09-17 22:01:00,44.9,41.0,30.24,East,86,0.0,-999.0,86,-99.99,,,0.00,weatherlink.com 1.10,2013-09-18 02:01:00,
2013-09-17 22:15:00,44.8,41.0,30.25,East,86,0.0,-999.0,86,-99.99,,,0.00,weatherlink.com 1.10,2013-09-18 02:15:00,
2013-09-17 22:30:00,44.6,41.0,30.25,East,86,0.0,-999.0,87,-99.99,,,0.00,weatherlink.com 1.10,2013-09-18 02:30:00,
2013-09-17 22:45:00,44.1,41.0,30.24,East,86,0.0,-999.0,87,-99.99,,,0.00,weatherlink.com 1.10,2013-09-18 02:45:00,
2013-09-17 23:00:00,43.8,41.0,30.25,East,86,0.0,-999.0,88,-99.99,,,0.00,weatherlink.com 1.10,2013-09-18 03:00:00,
2013-09-17 23:15:00,43.6,40.0,30.25,East,86,0.0,-999.0,88,-99.99,,,0.00,weatherlink.com 1.10,2013-09-18 03:15:00,
2013-09-17 23:30:00,43.5,40.0,30.24,East,86,0.0,-999.0,88,-99.99,,,0.00,weatherlink.com 1.10,2013-09-18 03:30:00,
2013-09-17 23:45:00,43.5,41.0,30.24,East,86,0.0,-999.0,89,-99.99,,,0.00,weatherlink.com 1.10,2013-09-18 03:45:00,